sensor_id;sensor_type;location;lat;lon;timestamp;pressure;altitude;pressure_sealevel;temperature;humidity
19761;BME280;10039;42.632;23.408;2023-04-06T00:01:53;94699.59;;;2.03;62.17
19761;BME280;10039;42.632;23.408;2023-04-06T00:04:20;94712.38;;;2.04;62.63
19761;BME280;10039;42.632;23.408;2023-04-06T00:06:46;94694.59;;;1.91;62.34
19761;BME280;10039;42.632;23.408;2023-04-06T00:09:12;94690.69;;;1.74;62.79
19761;BME280;10039;42.632;23.408;2023-04-06T00:11:39;94732.84;;;1.85;62.96
19761;BME280;10039;42.632;23.408;2023-04-06T00:14:08;94726.16;;;1.91;62.96
19761;BME280;10039;42.632;23.408;2023-04-06T00:16:35;94680.19;;;1.78;63.19
19761;BME280;10039;42.632;23.408;2023-04-06T00:19:01;94710.00;;;1.92;63.17
19761;BME280;10039;42.632;23.408;2023-04-06T00:21:28;94681.41;;;1.51;63.32
19761;BME280;10039;42.632;23.408;2023-04-06T00:23:57;94690.09;;;1.55;63.87
19761;BME280;10039;42.632;23.408;2023-04-06T00:26:24;94682.69;;;1.64;64.52
19761;BME280;10039;42.632;23.408;2023-04-06T00:28:52;94683.16;;;1.73;63.55
19761;BME280;10039;42.632;23.408;2023-04-06T00:31:19;94723.94;;;1.96;63.11
19761;BME280;10039;42.632;23.408;2023-04-06T00:33:47;94692.59;;;1.81;63.90
19761;BME280;10039;42.632;23.408;2023-04-06T00:36:17;94695.97;;;1.78;63.93
19761;BME280;10039;42.632;23.408;2023-04-06T00:38:43;94668.91;;;1.77;63.37
19761;BME280;10039;42.632;23.408;2023-04-06T00:41:10;94667.41;;;1.76;62.99
19761;BME280;10039;42.632;23.408;2023-04-06T00:43:37;94704.13;;;2.06;63.68
19761;BME280;10039;42.632;23.408;2023-04-06T00:46:03;94682.56;;;1.90;63.16
19761;BME280;10039;42.632;23.408;2023-04-06T00:48:29;94662.97;;;1.84;63.60
19761;BME280;10039;42.632;23.408;2023-04-06T00:50:57;94695.94;;;2.14;63.34
19761;BME280;10039;42.632;23.408;2023-04-06T00:53:30;94713.66;;;2.20;62.96
19761;BME280;10039;42.632;23.408;2023-04-06T00:55:56;94675.75;;;1.85;62.68
19761;BME280;10039;42.632;23.408;2023-04-06T00:58:23;94696.16;;;1.99;63.04
19761;BME280;10039;42.632;23.408;2023-04-06T01:00:51;94669.50;;;2.00;63.29
19761;BME280;10039;42.632;23.408;2023-04-06T01:03:19;94696.72;;;2.21;62.83
19761;BME280;10039;42.632;23.408;2023-04-06T01:05:47;94694.75;;;2.08;62.98
19761;BME280;10039;42.632;23.408;2023-04-06T01:08:13;94682.78;;;2.14;62.76
19761;BME280;10039;42.632;23.408;2023-04-06T01:10:41;94648.75;;;1.92;63.07
19761;BME280;10039;42.632;23.408;2023-04-06T01:13:08;94675.91;;;2.03;62.91
19761;BME280;10039;42.632;23.408;2023-04-06T01:15:35;94657.03;;;1.90;62.82
19761;BME280;10039;42.632;23.408;2023-04-06T01:18:08;94706.47;;;2.17;62.94
19761;BME280;10039;42.632;23.408;2023-04-06T01:20:36;94657.19;;;1.68;63.54
19761;BME280;10039;42.632;23.408;2023-04-06T01:23:03;94671.88;;;1.72;63.56
19761;BME280;10039;42.632;23.408;2023-04-06T01:25:32;94663.63;;;1.74;63.72
19761;BME280;10039;42.632;23.408;2023-04-06T01:27:59;94669.56;;;1.67;64.08
19761;BME280;10039;42.632;23.408;2023-04-06T01:30:25;94630.34;;;1.48;64.01
19761;BME280;10039;42.632;23.408;2023-04-06T01:32:52;94631.41;;;1.44;64.14
19761;BME280;10039;42.632;23.408;2023-04-06T01:35:19;94650.59;;;1.48;64.22
19761;BME280;10039;42.632;23.408;2023-04-06T01:37:46;94633.00;;;1.15;64.66
19761;BME280;10039;42.632;23.408;2023-04-06T01:40:14;94651.31;;;1.45;64.91
19761;BME280;10039;42.632;23.408;2023-04-06T01:42:40;94630.47;;;1.22;64.82
19761;BME280;10039;42.632;23.408;2023-04-06T01:45:08;94642.75;;;1.15;64.95
19761;BME280;10039;42.632;23.408;2023-04-06T01:47:37;94647.00;;;1.26;65.41
19761;BME280;10039;42.632;23.408;2023-04-06T01:50:03;94622.44;;;1.12;65.59
19761;BME280;10039;42.632;23.408;2023-04-06T01:52:35;94658.09;;;1.46;65.30
19761;BME280;10039;42.632;23.408;2023-04-06T01:55:05;94622.44;;;1.12;65.30
19761;BME280;10039;42.632;23.408;2023-04-06T01:57:38;94680.63;;;1.47;65.34
19761;BME280;10039;42.632;23.408;2023-04-06T02:00:04;94628.66;;;1.30;64.79
19761;BME280;10039;42.632;23.408;2023-04-06T02:02:32;94668.13;;;1.73;65.26
19761;BME280;10039;42.632;23.408;2023-04-06T02:04:59;94622.78;;;1.47;64.99
19761;BME280;10039;42.632;23.408;2023-04-06T02:07:26;94653.56;;;1.43;65.33
19761;BME280;10039;42.632;23.408;2023-04-06T02:09:54;94639.97;;;1.34;64.69
19761;BME280;10039;42.632;23.408;2023-04-06T02:12:21;94634.03;;;1.44;65.45
19761;BME280;10039;42.632;23.408;2023-04-06T02:14:48;94632.16;;;1.41;65.58
19761;BME280;10039;42.632;23.408;2023-04-06T02:17:14;94640.22;;;1.62;65.52
19761;BME280;10039;42.632;23.408;2023-04-06T02:19:43;94662.47;;;1.71;65.48
19761;BME280;10039;42.632;23.408;2023-04-06T02:22:10;94655.09;;;1.47;65.17
19761;BME280;10039;42.632;23.408;2023-04-06T02:24:37;94692.78;;;1.58;65.48
19761;BME280;10039;42.632;23.408;2023-04-06T02:27:04;94602.69;;;1.25;65.16
19761;BME280;10039;42.632;23.408;2023-04-06T02:29:30;94641.09;;;1.36;65.17
19761;BME280;10039;42.632;23.408;2023-04-06T02:31:56;94642.91;;;1.29;65.72
19761;BME280;10039;42.632;23.408;2023-04-06T02:34:22;94621.88;;;1.29;65.28
19761;BME280;10039;42.632;23.408;2023-04-06T02:36:48;94630.28;;;1.45;65.51
19761;BME280;10039;42.632;23.408;2023-04-06T02:39:13;94618.06;;;1.23;65.63
19761;BME280;10039;42.632;23.408;2023-04-06T02:41:41;94675.28;;;1.76;65.23
19761;BME280;10039;42.632;23.408;2023-04-06T02:44:08;94642.53;;;1.67;65.35
19761;BME280;10039;42.632;23.408;2023-04-06T02:46:35;94611.06;;;1.37;65.13
19761;BME280;10039;42.632;23.408;2023-04-06T02:49:03;94607.00;;;1.43;64.65
19761;BME280;10039;42.632;23.408;2023-04-06T02:51:32;94600.22;;;1.39;65.06
19761;BME280;10039;42.632;23.408;2023-04-06T02:53:59;94639.50;;;1.65;65.58
19761;BME280;10039;42.632;23.408;2023-04-06T02:56:46;94661.50;;;1.90;65.15
19761;BME280;10039;42.632;23.408;2023-04-06T02:59:16;94619.22;;;1.65;65.26
19761;BME280;10039;42.632;23.408;2023-04-06T03:01:46;94640.28;;;1.69;65.01
19761;BME280;10039;42.632;23.408;2023-04-06T03:04:15;94621.41;;;1.56;65.09
19761;BME280;10039;42.632;23.408;2023-04-06T03:06:41;94622.22;;;1.64;64.92
19761;BME280;10039;42.632;23.408;2023-04-06T03:09:08;94611.88;;;1.45;65.07
19761;BME280;10039;42.632;23.408;2023-04-06T03:11:35;94642.25;;;1.79;64.82
19761;BME280;10039;42.632;23.408;2023-04-06T03:14:02;94605.16;;;1.47;65.40
19761;BME280;10039;42.632;23.408;2023-04-06T03:16:28;94664.41;;;1.78;65.04
19761;BME280;10039;42.632;23.408;2023-04-06T03:18:56;94627.09;;;1.65;65.06
19761;BME280;10039;42.632;23.408;2023-04-06T03:21:22;94617.69;;;1.61;65.24
19761;BME280;10039;42.632;23.408;2023-04-06T03:23:48;94611.44;;;1.36;64.94
19761;BME280;10039;42.632;23.408;2023-04-06T03:26:17;94638.00;;;1.64;64.92
19761;BME280;10039;42.632;23.408;2023-04-06T03:28:44;94668.53;;;1.79;64.79
19761;BME280;10039;42.632;23.408;2023-04-06T03:31:12;94670.19;;;1.90;64.72
19761;BME280;10039;42.632;23.408;2023-04-06T03:33:41;94632.84;;;1.78;64.99
19761;BME280;10039;42.632;23.408;2023-04-06T03:36:11;94624.44;;;1.62;64.82
19761;BME280;10039;42.632;23.408;2023-04-06T03:38:38;94667.34;;;1.69;65.23
19761;BME280;10039;42.632;23.408;2023-04-06T03:41:04;94648.13;;;1.62;64.86
19761;BME280;10039;42.632;23.408;2023-04-06T03:43:30;94653.13;;;1.74;64.92
19761;BME280;10039;42.632;23.408;2023-04-06T03:45:55;94640.94;;;1.59;65.20
19761;BME280;10039;42.632;23.408;2023-04-06T03:48:25;94663.56;;;1.67;65.04
19761;BME280;10039;42.632;23.408;2023-04-06T03:50:53;94657.28;;;1.78;65.21
19761;BME280;10039;42.632;23.408;2023-04-06T03:53:20;94607.69;;;1.37;65.31
19761;BME280;10039;42.632;23.408;2023-04-06T03:55:47;94656.28;;;1.93;64.58
19761;BME280;10039;42.632;23.408;2023-04-06T03:58:17;94610.44;;;1.47;64.61
19761;BME280;10039;42.632;23.408;2023-04-06T04:00:44;94663.78;;;1.91;65.30
19761;BME280;10039;42.632;23.408;2023-04-06T04:03:12;94614.66;;;1.59;64.56
19761;BME280;10039;42.632;23.408;2023-04-06T04:05:41;94607.47;;;1.52;64.41
19761;BME280;10039;42.632;23.408;2023-04-06T04:08:08;94614.59;;;1.52;64.54
19761;BME280;10039;42.632;23.408;2023-04-06T04:10:34;94656.97;;;1.83;64.72
19761;BME280;10039;42.632;23.408;2023-04-06T04:13:00;94613.88;;;1.55;64.44
19761;BME280;10039;42.632;23.408;2023-04-06T04:15:26;94611.81;;;1.78;64.30
19761;BME280;10039;42.632;23.408;2023-04-06T04:17:52;94632.56;;;1.90;64.27
19761;BME280;10039;42.632;23.408;2023-04-06T04:20:18;94638.59;;;1.90;64.51
19761;BME280;10039;42.632;23.408;2023-04-06T04:22:45;94624.69;;;1.93;64.30
19761;BME280;10039;42.632;23.408;2023-04-06T04:25:13;94610.97;;;1.67;64.22
19761;BME280;10039;42.632;23.408;2023-04-06T04:27:39;94665.03;;;2.08;64.76
19761;BME280;10039;42.632;23.408;2023-04-06T04:30:06;94632.09;;;1.74;64.76
19761;BME280;10039;42.632;23.408;2023-04-06T04:32:41;94624.13;;;1.67;64.02
19761;BME280;10039;42.632;23.408;2023-04-06T04:35:11;94672.44;;;1.92;64.59
19761;BME280;10039;42.632;23.408;2023-04-06T04:38:09;94661.25;;;2.02;64.51
19761;BME280;10039;42.632;23.408;2023-04-06T04:40:42;94627.19;;;1.76;65.11
19761;BME280;10039;42.632;23.408;2023-04-06T04:43:21;94644.63;;;1.91;64.43
19761;BME280;10039;42.632;23.408;2023-04-06T04:45:49;94635.53;;;1.85;64.21
19761;BME280;10039;42.632;23.408;2023-04-06T04:48:15;94614.72;;;1.66;64.11
19761;BME280;10039;42.632;23.408;2023-04-06T04:50:42;94611.38;;;1.69;64.65
19761;BME280;10039;42.632;23.408;2023-04-06T04:53:11;94632.09;;;1.74;64.12
19761;BME280;10039;42.632;23.408;2023-04-06T04:55:39;94666.22;;;2.14;63.96
19761;BME280;10039;42.632;23.408;2023-04-06T04:58:22;94631.53;;;1.98;63.79
19761;BME280;10039;42.632;23.408;2023-04-06T05:00:51;94649.53;;;1.96;63.74
19761;BME280;10039;42.632;23.408;2023-04-06T05:03:21;94666.75;;;2.33;64.16
19761;BME280;10039;42.632;23.408;2023-04-06T05:05:48;94646.63;;;2.08;63.83
19761;BME280;10039;42.632;23.408;2023-04-06T05:08:13;94650.47;;;2.20;63.63
19761;BME280;10039;42.632;23.408;2023-04-06T05:10:42;94648.19;;;2.16;63.59
19761;BME280;10039;42.632;23.408;2023-04-06T05:13:13;94646.00;;;2.28;63.37
19761;BME280;10039;42.632;23.408;2023-04-06T05:15:42;94618.47;;;2.12;63.31
19761;BME280;10039;42.632;23.408;2023-04-06T05:18:31;94675.97;;;2.63;63.35
19761;BME280;10039;42.632;23.408;2023-04-06T05:21:12;94637.03;;;2.32;63.53
19761;BME280;10039;42.632;23.408;2023-04-06T05:23:41;94628.97;;;2.12;62.57
19761;BME280;10039;42.632;23.408;2023-04-06T05:26:12;94649.94;;;2.48;63.20
19761;BME280;10039;42.632;23.408;2023-04-06T05:28:39;94647.63;;;2.43;62.90
19761;BME280;10039;42.632;23.408;2023-04-06T05:31:05;94686.50;;;2.63;62.87
19761;BME280;10039;42.632;23.408;2023-04-06T05:36:15;94651.56;;;2.70;62.79
19761;BME280;10039;42.632;23.408;2023-04-06T05:38:44;94612.63;;;2.42;63.07
19761;BME280;10039;42.632;23.408;2023-04-06T05:41:11;94633.09;;;2.66;62.99
19761;BME280;10039;42.632;23.408;2023-04-06T05:43:37;94657.91;;;2.62;62.25
19761;BME280;10039;42.632;23.408;2023-04-06T05:46:04;94649.31;;;2.68;62.96
19761;BME280;10039;42.632;23.408;2023-04-06T05:48:31;94633.50;;;2.68;63.26
19761;BME280;10039;42.632;23.408;2023-04-06T05:50:57;94653.88;;;2.85;62.65
19761;BME280;10039;42.632;23.408;2023-04-06T05:53:34;94648.22;;;2.83;62.84
19761;BME280;10039;42.632;23.408;2023-04-06T05:56:06;94625.94;;;2.63;63.52
19761;BME280;10039;42.632;23.408;2023-04-06T05:58:32;94623.00;;;2.82;63.15
19761;BME280;10039;42.632;23.408;2023-04-06T06:00:59;94603.38;;;2.66;62.66
19761;BME280;10039;42.632;23.408;2023-04-06T06:03:26;94641.88;;;2.91;62.57
19761;BME280;10039;42.632;23.408;2023-04-06T06:05:53;94614.63;;;2.59;62.84
19761;BME280;10039;42.632;23.408;2023-04-06T06:08:22;94657.72;;;2.98;63.23
19761;BME280;10039;42.632;23.408;2023-04-06T06:10:48;94613.16;;;2.65;63.16
19761;BME280;10039;42.632;23.408;2023-04-06T06:13:20;94616.22;;;2.81;63.23
19761;BME280;10039;42.632;23.408;2023-04-06T06:15:51;94635.41;;;2.78;63.27
19761;BME280;10039;42.632;23.408;2023-04-06T06:18:18;94650.22;;;3.07;63.65
19761;BME280;10039;42.632;23.408;2023-04-06T06:20:46;94667.50;;;2.94;64.17
19761;BME280;10039;42.632;23.408;2023-04-06T06:23:17;94624.13;;;2.81;63.72
19761;BME280;10039;42.632;23.408;2023-04-06T06:25:48;94659.72;;;3.29;63.55
19761;BME280;10039;42.632;23.408;2023-04-06T06:28:14;94636.78;;;3.33;63.25
19761;BME280;10039;42.632;23.408;2023-04-06T06:30:40;94656.38;;;3.42;62.95
19761;BME280;10039;42.632;23.408;2023-04-06T06:33:07;94609.94;;;3.10;62.66
19761;BME280;10039;42.632;23.408;2023-04-06T06:35:33;94616.69;;;3.01;62.99
19761;BME280;10039;42.632;23.408;2023-04-06T06:37:59;94631.47;;;3.26;63.46
19761;BME280;10039;42.632;23.408;2023-04-06T06:40:27;94655.22;;;3.40;63.35
19761;BME280;10039;42.632;23.408;2023-04-06T06:42:55;94614.16;;;3.25;63.19
19761;BME280;10039;42.632;23.408;2023-04-06T06:45:21;94611.50;;;3.28;63.16
19761;BME280;10039;42.632;23.408;2023-04-06T06:47:47;94633.06;;;3.55;62.91
19761;BME280;10039;42.632;23.408;2023-04-06T06:50:18;94611.91;;;3.34;62.44
19761;BME280;10039;42.632;23.408;2023-04-06T06:52:48;94653.81;;;3.70;62.27
19761;BME280;10039;42.632;23.408;2023-04-06T06:55:14;94628.91;;;3.50;62.74
19761;BME280;10039;42.632;23.408;2023-04-06T06:57:40;94634.19;;;3.50;63.24
19761;BME280;10039;42.632;23.408;2023-04-06T07:00:11;94604.38;;;3.29;62.96
19761;BME280;10039;42.632;23.408;2023-04-06T07:02:45;94613.06;;;3.47;62.94
19761;BME280;10039;42.632;23.408;2023-04-06T07:05:11;94625.13;;;3.51;62.72
19761;BME280;10039;42.632;23.408;2023-04-06T07:07:38;94630.81;;;3.67;62.73
19761;BME280;10039;42.632;23.408;2023-04-06T07:10:05;94623.28;;;3.66;63.01
19761;BME280;10039;42.632;23.408;2023-04-06T07:12:33;94640.25;;;3.82;62.78
19761;BME280;10039;42.632;23.408;2023-04-06T07:15:01;94628.91;;;3.68;62.70
19761;BME280;10039;42.632;23.408;2023-04-06T07:17:29;94614.22;;;3.53;62.32
19761;BME280;10039;42.632;23.408;2023-04-06T07:19:55;94630.78;;;3.50;62.14
19761;BME280;10039;42.632;23.408;2023-04-06T07:22:21;94615.75;;;3.61;62.29
19761;BME280;10039;42.632;23.408;2023-04-06T07:24:50;94590.88;;;3.62;62.49
19761;BME280;10039;42.632;23.408;2023-04-06T07:27:16;94621.75;;;3.51;62.07
19761;BME280;10039;42.632;23.408;2023-04-06T07:29:46;94598.34;;;3.39;62.26
19761;BME280;10039;42.632;23.408;2023-04-06T07:32:12;94626.31;;;3.82;62.39
19761;BME280;10039;42.632;23.408;2023-04-06T07:34:39;94628.56;;;3.90;62.00
19761;BME280;10039;42.632;23.408;2023-04-06T07:37:07;94627.44;;;3.98;60.89
19761;BME280;10039;42.632;23.408;2023-04-06T07:39:36;94597.66;;;3.94;61.17
19761;BME280;10039;42.632;23.408;2023-04-06T07:42:03;94605.97;;;4.03;61.24
19761;BME280;10039;42.632;23.408;2023-04-06T07:44:29;94618.75;;;4.29;60.82
19761;BME280;10039;42.632;23.408;2023-04-06T07:46:56;94612.72;;;4.39;60.63
19761;BME280;10039;42.632;23.408;2023-04-06T07:49:22;94614.97;;;4.37;60.09
19761;BME280;10039;42.632;23.408;2023-04-06T07:51:48;94621.03;;;4.13;59.85
19761;BME280;10039;42.632;23.408;2023-04-06T07:54:14;94593.13;;;3.88;59.56
19761;BME280;10039;42.632;23.408;2023-04-06T07:56:40;94590.13;;;3.93;59.79
19761;BME280;10039;42.632;23.408;2023-04-06T07:59:07;94582.56;;;4.09;60.59
19761;BME280;10039;42.632;23.408;2023-04-06T08:01:37;94631.19;;;4.49;59.93
19761;BME280;10039;42.632;23.408;2023-04-06T08:04:03;94601.00;;;4.43;60.83
19761;BME280;10039;42.632;23.408;2023-04-06T08:06:29;94582.91;;;4.38;59.46
19761;BME280;10039;42.632;23.408;2023-04-06T08:08:55;94625.44;;;4.79;59.44
19761;BME280;10039;42.632;23.408;2023-04-06T08:11:22;94638.25;;;4.91;59.47
19761;BME280;10039;42.632;23.408;2023-04-06T08:13:48;94630.72;;;4.79;59.14
19761;BME280;10039;42.632;23.408;2023-04-06T08:16:14;94631.44;;;5.04;58.79
19761;BME280;10039;42.632;23.408;2023-04-06T08:18:40;94625.78;;;5.02;59.47
19761;BME280;10039;42.632;23.408;2023-04-06T08:21:06;94615.16;;;5.12;59.52
19761;BME280;10039;42.632;23.408;2023-04-06T08:23:32;94607.56;;;5.18;59.05
19761;BME280;10039;42.632;23.408;2023-04-06T08:25:58;94640.66;;;5.50;58.00
19761;BME280;10039;42.632;23.408;2023-04-06T08:28:24;94626.75;;;5.32;57.65
19761;BME280;10039;42.632;23.408;2023-04-06T08:30:50;94593.66;;;5.07;58.29
19761;BME280;10039;42.632;23.408;2023-04-06T08:33:16;94589.84;;;5.11;58.18
19761;BME280;10039;42.632;23.408;2023-04-06T08:35:42;94632.00;;;5.46;58.35
19761;BME280;10039;42.632;23.408;2023-04-06T08:38:07;94611.94;;;5.48;57.03
19761;BME280;10039;42.632;23.408;2023-04-06T08:40:40;94605.06;;;5.58;56.94
19761;BME280;10039;42.632;23.408;2023-04-06T08:43:09;94613.34;;;5.67;57.88
19761;BME280;10039;42.632;23.408;2023-04-06T08:45:38;94637.06;;;5.88;57.16
19761;BME280;10039;42.632;23.408;2023-04-06T08:48:04;94625.19;;;6.10;56.00
19761;BME280;10039;42.632;23.408;2023-04-06T08:50:32;94623.13;;;5.77;55.76
19761;BME280;10039;42.632;23.408;2023-04-06T08:52:59;94608.13;;;5.56;56.02
19761;BME280;10039;42.632;23.408;2023-04-06T08:55:26;94600.16;;;5.60;55.70
19761;BME280;10039;42.632;23.408;2023-04-06T08:57:54;94613.84;;;5.45;55.38
19761;BME280;10039;42.632;23.408;2023-04-06T09:00:20;94622.13;;;5.57;55.26
19761;BME280;10039;42.632;23.408;2023-04-06T09:02:49;94561.31;;;5.43;54.99
19761;BME280;10039;42.632;23.408;2023-04-06T09:05:17;94613.81;;;5.55;55.34
19761;BME280;10039;42.632;23.408;2023-04-06T09:07:43;94612.22;;;5.64;54.17
19761;BME280;10039;42.632;23.408;2023-04-06T09:10:10;94619.81;;;5.59;54.84
19761;BME280;10039;42.632;23.408;2023-04-06T09:12:36;94591.16;;;5.44;55.08
19761;BME280;10039;42.632;23.408;2023-04-06T09:15:02;94590.03;;;5.45;54.91
19761;BME280;10039;42.632;23.408;2023-04-06T09:17:30;94603.13;;;5.72;55.19
19761;BME280;10039;42.632;23.408;2023-04-06T09:20:02;94597.13;;;5.58;54.49
19761;BME280;10039;42.632;23.408;2023-04-06T09:22:39;94566.66;;;5.36;55.08
19761;BME280;10039;42.632;23.408;2023-04-06T09:25:06;94609.22;;;5.59;55.99
19761;BME280;10039;42.632;23.408;2023-04-06T09:27:37;94582.47;;;5.50;55.56
19761;BME280;10039;42.632;23.408;2023-04-06T09:30:04;94586.81;;;5.74;56.53
19761;BME280;10039;42.632;23.408;2023-04-06T09:32:31;94611.75;;;5.87;54.81
19761;BME280;10039;42.632;23.408;2023-04-06T09:35:08;94561.53;;;5.66;55.22
19761;BME280;10039;42.632;23.408;2023-04-06T09:37:34;94628.59;;;6.07;55.97
19761;BME280;10039;42.632;23.408;2023-04-06T09:40:06;94578.84;;;5.84;55.11
19761;BME280;10039;42.632;23.408;2023-04-06T09:42:33;94590.94;;;5.89;55.19
19761;BME280;10039;42.632;23.408;2023-04-06T09:45:00;94584.16;;;5.81;54.96
19761;BME280;10039;42.632;23.408;2023-04-06T09:47:26;94618.22;;;5.79;54.76
19761;BME280;10039;42.632;23.408;2023-04-06T09:50:02;94591.72;;;5.75;55.50
19761;BME280;10039;42.632;23.408;2023-04-06T09:52:44;94546.19;;;5.44;54.73
19761;BME280;10039;42.632;23.408;2023-04-06T09:55:20;94607.25;;;5.73;54.70
19761;BME280;10039;42.632;23.408;2023-04-06T09:57:58;94578.19;;;5.63;55.14
19761;BME280;10039;42.632;23.408;2023-04-06T10:00:28;94570.56;;;5.79;55.14
19761;BME280;10039;42.632;23.408;2023-04-06T10:05:52;94568.81;;;5.55;54.03
19761;BME280;10039;42.632;23.408;2023-04-06T10:08:22;94581.97;;;5.62;54.35
19761;BME280;10039;42.632;23.408;2023-04-06T10:10:50;94594.72;;;5.88;54.41
19761;BME280;10039;42.632;23.408;2023-04-06T10:13:18;94545.00;;;5.51;54.16
19761;BME280;10039;42.632;23.408;2023-04-06T10:15:45;94566.94;;;5.52;53.54
19761;BME280;10039;42.632;23.408;2023-04-06T10:18:11;94541.78;;;5.27;53.92
19761;BME280;10039;42.632;23.408;2023-04-06T10:21:19;94574.47;;;5.53;54.06
19761;BME280;10039;42.632;23.408;2023-04-06T10:23:52;94549.38;;;5.21;53.95
19761;BME280;10039;42.632;23.408;2023-04-06T10:26:21;94550.91;;;5.15;54.19
19761;BME280;10039;42.632;23.408;2023-04-06T10:28:48;94556.19;;;5.15;53.49
19761;BME280;10039;42.632;23.408;2023-04-06T10:31:15;94519.91;;;5.19;54.43
19761;BME280;10039;42.632;23.408;2023-04-06T10:33:41;94555.59;;;5.55;54.78
19761;BME280;10039;42.632;23.408;2023-04-06T10:38:38;94563.09;;;5.63;53.37
19761;BME280;10039;42.632;23.408;2023-04-06T10:41:10;94567.16;;;5.82;54.46
19761;BME280;10039;42.632;23.408;2023-04-06T10:43:38;94555.28;;;5.97;54.20
19761;BME280;10039;42.632;23.408;2023-04-06T10:46:07;94556.00;;;6.04;53.37
19761;BME280;10039;42.632;23.408;2023-04-06T10:51:08;94563.94;;;6.04;53.52
19761;BME280;10039;42.632;23.408;2023-04-06T10:53:34;94573.41;;;6.02;52.69
19761;BME280;10039;42.632;23.408;2023-04-06T10:56:00;94560.16;;;6.05;52.32
19761;BME280;10039;42.632;23.408;2023-04-06T10:58:28;94542.38;;;6.02;52.34
19761;BME280;10039;42.632;23.408;2023-04-06T11:00:54;94577.81;;;6.15;52.56
19761;BME280;10039;42.632;23.408;2023-04-06T11:03:21;94572.69;;;5.98;52.46
19761;BME280;10039;42.632;23.408;2023-04-06T11:05:51;94576.88;;;5.92;52.53
19761;BME280;10039;42.632;23.408;2023-04-06T11:08:25;94566.97;;;6.03;53.54
19761;BME280;10039;42.632;23.408;2023-04-06T11:11:10;94538.03;;;5.78;53.12
19761;BME280;10039;42.632;23.408;2023-04-06T11:13:44;94567.22;;;6.19;52.57
19761;BME280;10039;42.632;23.408;2023-04-06T11:16:17;94528.16;;;5.86;52.01
19761;BME280;10039;42.632;23.408;2023-04-06T11:19:03;94576.41;;;6.04;52.30
19761;BME280;10039;42.632;23.408;2023-04-06T11:21:38;94532.69;;;5.89;52.66
19761;BME280;10039;42.632;23.408;2023-04-06T11:26:48;94562.50;;;6.37;52.66
19761;BME280;10039;42.632;23.408;2023-04-06T11:29:18;94542.16;;;6.27;52.67
19761;BME280;10039;42.632;23.408;2023-04-06T11:31:57;94534.06;;;6.41;52.68
19761;BME280;10039;42.632;23.408;2023-04-06T11:34:24;94542.94;;;6.61;52.13
19761;BME280;10039;42.632;23.408;2023-04-06T11:37:01;94555.03;;;6.62;51.41
19761;BME280;10039;42.632;23.408;2023-04-06T11:39:29;94532.84;;;6.49;51.14
19761;BME280;10039;42.632;23.408;2023-04-06T11:41:57;94518.59;;;6.36;51.57
19761;BME280;10039;42.632;23.408;2023-04-06T11:44:34;94544.00;;;6.33;50.92
19761;BME280;10039;42.632;23.408;2023-04-06T11:47:05;94549.66;;;6.32;51.55
19761;BME280;10039;42.632;23.408;2023-04-06T11:49:32;94554.94;;;6.35;52.33
19761;BME280;10039;42.632;23.408;2023-04-06T11:51:59;94540.00;;;6.15;51.94
19761;BME280;10039;42.632;23.408;2023-04-06T11:56:58;94568.53;;;6.41;51.89
19761;BME280;10039;42.632;23.408;2023-04-06T11:59:24;94555.09;;;6.55;52.01
19761;BME280;10039;42.632;23.408;2023-04-06T12:01:49;94541.13;;;6.54;51.71
19761;BME280;10039;42.632;23.408;2023-04-06T12:04:15;94549.91;;;6.48;51.75
19761;BME280;10039;42.632;23.408;2023-04-06T12:06:43;94541.16;;;6.51;50.72
19761;BME280;10039;42.632;23.408;2023-04-06T12:09:09;94514.84;;;6.33;51.65
19761;BME280;10039;42.632;23.408;2023-04-06T12:11:35;94536.91;;;6.60;51.77
19761;BME280;10039;42.632;23.408;2023-04-06T12:14:01;94534.97;;;6.61;51.41
19761;BME280;10039;42.632;23.408;2023-04-06T12:16:30;94566.16;;;6.50;51.27
19761;BME280;10039;42.632;23.408;2023-04-06T12:18:56;94555.47;;;6.57;51.42
19761;BME280;10039;42.632;23.408;2023-04-06T12:21:23;94566.13;;;6.53;51.49
19761;BME280;10039;42.632;23.408;2023-04-06T12:23:48;94530.69;;;6.37;51.60
19761;BME280;10039;42.632;23.408;2023-04-06T12:26:13;94543.22;;;6.36;51.64
19761;BME280;10039;42.632;23.408;2023-04-06T12:28:40;94511.06;;;6.34;51.57
19761;BME280;10039;42.632;23.408;2023-04-06T12:31:05;94566.16;;;6.50;51.91
19761;BME280;10039;42.632;23.408;2023-04-06T12:33:31;94552.50;;;6.51;52.34
19761;BME280;10039;42.632;23.408;2023-04-06T12:35:57;94574.13;;;6.50;52.08
19761;BME280;10039;42.632;23.408;2023-04-06T12:38:23;94557.06;;;6.51;51.90
19761;BME280;10039;42.632;23.408;2023-04-06T12:40:52;94543.16;;;6.40;51.89
19761;BME280;10039;42.632;23.408;2023-04-06T12:43:18;94530.56;;;6.51;51.94
19761;BME280;10039;42.632;23.408;2023-04-06T12:45:44;94537.44;;;6.45;51.55
19761;BME280;10039;42.632;23.408;2023-04-06T12:48:10;94520.75;;;6.48;52.22
19761;BME280;10039;42.632;23.408;2023-04-06T12:50:35;94517.22;;;6.58;51.84
19761;BME280;10039;42.632;23.408;2023-04-06T12:53:01;94537.56;;;6.67;51.90
19761;BME280;10039;42.632;23.408;2023-04-06T12:55:29;94516.25;;;6.45;51.99
19761;BME280;10039;42.632;23.408;2023-04-06T12:57:55;94534.13;;;6.70;51.45
19761;BME280;10039;42.632;23.408;2023-04-06T13:00:21;94530.31;;;6.71;51.90
19761;BME280;10039;42.632;23.408;2023-04-06T13:02:47;94536.16;;;6.89;51.60
19761;BME280;10039;42.632;23.408;2023-04-06T13:05:13;94526.25;;;6.93;50.79
19761;BME280;10039;42.632;23.408;2023-04-06T13:07:44;94511.94;;;6.87;51.36
19761;BME280;10039;42.632;23.408;2023-04-06T13:10:09;94513.69;;;6.67;50.41
19761;BME280;10039;42.632;23.408;2023-04-06T13:12:35;94536.06;;;6.96;49.84
19761;BME280;10039;42.632;23.408;2023-04-06T13:15:01;94510.97;;;6.74;50.58
19761;BME280;10039;42.632;23.408;2023-04-06T13:17:30;94532.69;;;6.63;50.35
19761;BME280;10039;42.632;23.408;2023-04-06T13:19:56;94534.53;;;6.69;50.96
19761;BME280;10039;42.632;23.408;2023-04-06T13:22:22;94494.38;;;6.34;51.06